Time;durP1;ratioP1;P1;durP2;ratioP2;P2;SDS_P1;SDS_P2;PMS_P1;PMS_P2;Temp;Humidity;BMP_temperature;BMP_pressure;BME280_temperature;BME280_humidity;BME280_pressure;Samples;Min_cycle;Max_cycle;Signal;HPM_P1;HPM_P2
2023/08/26 00:00:16;;;;;;;6.93;5.33;;;;;;;16.60;100.00;101906.44;5029046;28;20968;-76
2023/08/26 00:02:42;;;;;;;6.73;5.20;;;;;;;16.66;100.00;101910.16;5039188;28;20194;-76
2023/08/26 00:05:07;;;;;;;6.23;4.90;;;;;;;16.59;100.00;101876.88;5032903;28;20195;-76
2023/08/26 00:07:33;;;;;;;7.70;5.53;;;;;;;16.05;100.00;101808.47;5033722;28;20684;-76
2023/08/26 00:09:58;;;;;;;7.10;6.20;;;;;;;14.62;100.00;101633.25;5031400;28;20203;-77
2023/08/26 00:12:24;;;;;;;8.53;6.73;;;;;;;15.12;100.00;101730.94;5031938;28;20203;-76
2023/08/26 00:14:49;;;;;;;7.57;6.00;;;;;;;15.84;100.00;101849.31;5032389;28;20704;-76
2023/08/26 00:17:17;;;;;;;8.07;6.90;;;;;;;16.38;100.00;101943.78;5031766;28;20184;-76
2023/08/26 00:19:44;;;;;;;7.53;5.70;;;;;;;16.62;100.00;101950.41;5031807;28;20270;-76
2023/08/26 00:22:10;;;;;;;6.87;5.73;;;;;;;16.84;100.00;101966.44;5033629;28;20548;-76
2023/08/26 00:24:36;;;;;;;8.40;7.00;;;;;;;16.79;100.00;101975.19;5033285;28;20431;-76
2023/08/26 00:27:02;;;;;;;6.10;5.50;;;;;;;16.40;100.00;101925.47;5031343;28;20911;-76
2023/08/26 00:29:28;;;;;;;6.57;5.50;;;;;;;16.65;100.00;101946.44;5030626;28;20234;-76
2023/08/26 00:31:53;;;;;;;8.60;6.17;;;;;;;16.21;100.00;101856.75;5030712;28;20499;-76
2023/08/26 00:34:19;;;;;;;6.93;6.17;;;;;;;16.72;100.00;101942.69;5027827;28;20683;-76
2023/08/26 00:36:44;;;;;;;7.60;6.80;;;;;;;16.75;100.00;101959.53;5032251;28;20653;-76
2023/08/26 00:39:10;;;;;;;6.80;5.80;;;;;;;16.72;100.00;101944.53;5032426;28;20236;-75
2023/08/26 00:41:35;;;;;;;7.40;6.40;;;;;;;15.62;100.00;101740.47;5030381;28;20247;-76
2023/08/26 00:44:01;;;;;;;7.87;5.40;;;;;;;16.84;100.00;101945.59;5031410;28;20184;-76
2023/08/26 00:46:26;;;;;;;8.37;6.87;;;;;;;15.90;100.00;101797.91;5030901;28;20639;-76
2023/08/26 00:48:52;;;;;;;8.97;7.40;;;;;;;16.41;100.00;101923.56;5030837;28;20677;-77
2023/08/26 00:51:19;;;;;;;8.67;7.63;;;;;;;16.54;100.00;101938.97;5030806;28;20200;-76
2023/08/26 00:53:46;;;;;;;8.53;7.50;;;;;;;15.00;100.00;101696.66;5030596;28;20203;-77
2023/08/26 00:56:12;;;;;;;12.93;7.83;;;;;;;16.67;100.00;101939.75;5031514;28;20427;-77
2023/08/26 00:58:37;;;;;;;8.93;7.40;;;;;;;16.19;100.00;101891.31;5030825;28;20998;-76
2023/08/26 01:01:03;;;;;;;11.90;8.17;;;;;;;16.19;100.00;101920.25;5032132;28;20270;-77
2023/08/26 01:03:29;;;;;;;11.83;8.60;;;;;;;16.48;100.00;101979.38;5032653;28;20275;-76
2023/08/26 01:05:55;;;;;;;8.50;7.30;;;;;;;16.57;100.00;101969.16;5033775;28;21513;-76
2023/08/26 01:08:21;;;;;;;8.70;6.90;;;;;;;16.70;100.00;102007.06;5031661;28;20176;-76
2023/08/26 01:11:04;;;;;;;9.20;7.80;;;;;;;16.56;100.00;102002.72;5031892;28;20555;-76
2023/08/26 01:13:41;;;;;;;9.70;7.40;;;;;;;16.48;100.00;102017.28;5029037;28;20524;-76
2023/08/26 01:16:08;;;;;;;10.03;7.60;;;;;;;16.34;100.00;102006.66;5032576;28;20430;-76
2023/08/26 01:18:34;;;;;;;7.90;7.07;;;;;;;15.72;100.00;101938.38;5031420;28;20451;-76
2023/08/26 01:21:00;;;;;;;10.13;7.10;;;;;;;16.64;100.00;102075.63;5032127;28;20847;-76
2023/08/26 01:23:41;;;;;;;10.83;7.37;;;;;;;16.67;100.00;102077.91;5031994;28;20653;-76
2023/08/26 01:26:06;;;;;;;7.60;6.37;;;;;;;16.66;100.00;102103.34;5031991;28;20183;-76
2023/08/26 01:28:32;;;;;;;7.73;6.93;;;;;;;16.66;100.00;102094.38;5029925;28;20827;-77
2023/08/26 01:31:04;;;;;;;9.50;6.70;;;;;;;15.83;100.00;101975.63;5032098;28;20180;-76
2023/08/26 01:33:40;;;;;;;9.10;7.27;;;;;;;16.65;100.00;102104.38;5033928;28;20215;-76
2023/08/26 01:36:13;;;;;;;7.70;6.90;;;;;;;16.07;100.00;102008.56;5030910;28;20426;-76
2023/08/26 01:38:40;;;;;;;8.60;6.63;;;;;;;16.83;100.00;102138.16;5031941;28;20447;-77
2023/08/26 01:41:09;;;;;;;7.33;6.10;;;;;;;16.66;100.00;102061.88;5031078;28;20522;-76
2023/08/26 01:43:36;;;;;;;8.40;6.33;;;;;;;16.34;100.00;101988.53;5032209;28;20442;-76
2023/08/26 01:46:01;;;;;;;10.10;8.00;;;;;;;16.38;100.00;102000.66;5028506;28;20524;-75
2023/08/26 01:48:27;;;;;;;11.30;9.03;;;;;;;16.65;100.00;102022.28;5029267;28;20460;-76
2023/08/26 01:50:52;;;;;;;8.90;7.50;;;;;;;16.03;100.00;101935.91;5031882;28;20219;-76
2023/08/26 01:53:17;;;;;;;9.30;7.17;;;;;;;17.02;100.00;102049.78;5028387;28;20246;-76
2023/08/26 01:55:43;;;;;;;8.73;7.63;;;;;;;16.69;100.00;102007.25;5025918;28;20199;-75
2023/08/26 01:58:08;;;;;;;9.67;7.13;;;;;;;16.98;100.00;102024.13;5037856;28;20183;-76
2023/08/26 02:00:34;;;;;;;8.83;6.53;;;;;;;16.81;100.00;102000.22;5032298;28;20683;-75
2023/08/26 02:02:59;;;;;;;8.63;6.50;;;;;;;16.92;100.00;101996.00;5026757;28;20172;-75
2023/08/26 02:05:25;;;;;;;10.80;7.10;;;;;;;16.42;100.00;101908.97;5028620;28;20188;-75
2023/08/26 02:07:50;;;;;;;7.87;6.60;;;;;;;16.82;100.00;101957.69;5028465;28;20195;-75
2023/08/26 02:10:16;;;;;;;9.00;6.43;;;;;;;16.64;100.00;101929.34;5034321;28;20577;-75
2023/08/26 02:12:41;;;;;;;9.00;6.27;;;;;;;16.72;100.00;101926.41;5027238;28;20345;-75
2023/08/26 02:15:08;;;;;;;10.03;6.03;;;;;;;16.87;100.00;101930.78;5027266;28;20212;-75
2023/08/26 02:17:34;;;;;;;10.83;6.40;;;;;;;16.34;100.00;101880.25;5029462;28;20242;-76
2023/08/26 02:19:59;;;;;;;8.00;5.77;;;;;;;16.78;100.00;101915.78;5028654;28;20969;-75
2023/08/26 02:22:25;;;;;;;8.77;5.80;;;;;;;16.45;100.00;101885.03;5028313;28;20445;-76
2023/08/26 02:24:51;;;;;;;7.73;5.40;;;;;;;16.51;100.00;101896.88;5027757;28;20192;-76
2023/08/26 02:27:16;;;;;;;6.27;5.10;;;;;;;15.87;100.00;101773.97;5027863;28;20179;-76
2023/08/26 02:29:42;;;;;;;7.13;5.90;;;;;;;16.43;100.00;101872.72;5030952;28;20825;-75
2023/08/26 02:32:08;;;;;;;6.80;5.07;;;;;;;16.62;100.00;101885.38;5027147;28;20215;-75
2023/08/26 02:34:33;;;;;;;10.33;4.83;;;;;;;16.36;100.00;101826.72;5029251;28;20188;-76
2023/08/26 02:36:58;;;;;;;6.10;4.17;;;;;;;16.52;100.00;101848.97;5027351;28;20246;-76
2023/08/26 02:39:24;;;;;;;7.63;4.30;;;;;;;16.50;100.00;101846.47;5028778;28;20287;-75
2023/08/26 02:41:49;;;;;;;5.70;4.13;;;;;;;16.44;100.00;101826.50;5029632;28;20184;-74
2023/08/26 02:44:15;;;;;;;4.83;3.43;;;;;;;16.48;100.00;101830.44;5030241;28;20652;-74
2023/08/26 02:46:41;;;;;;;5.43;3.50;;;;;;;15.30;100.00;101640.28;5028489;28;20206;-75
2023/08/26 02:49:06;;;;;;;9.80;3.80;;;;;;;16.25;100.00;101789.47;5028000;28;20239;-76
2023/08/26 02:51:32;;;;;;;7.10;4.17;;;;;;;16.27;100.00;101809.06;5030173;28;20458;-76
2023/08/26 02:53:57;;;;;;;6.63;3.83;;;;;;;16.33;100.00;101805.50;5036151;28;20207;-76
2023/08/26 02:56:23;;;;;;;5.77;2.90;;;;;;;16.36;100.00;101801.53;5030485;28;20211;-75
2023/08/26 02:58:48;;;;;;;6.80;3.53;;;;;;;14.84;100.00;101550.19;5027954;28;20807;-75
2023/08/26 03:01:16;;;;;;;5.17;3.20;;;;;;;16.15;100.00;101749.34;5027785;28;20192;-75
2023/08/26 03:03:42;;;;;;;7.77;3.93;;;;;;;16.31;100.00;101774.25;5026686;28;20208;-76
2023/08/26 03:06:07;;;;;;;5.20;3.20;;;;;;;16.00;100.00;101721.72;5029525;28;20903;-75
2023/08/26 03:08:33;;;;;;;5.17;3.23;;;;;;;15.46;100.00;101612.81;5024891;28;20199;-74
2023/08/26 03:11:03;;;;;;;5.80;3.10;;;;;;;16.22;100.00;101766.38;5025939;28;23769;-75
2023/08/26 03:13:29;;;;;;;4.00;2.50;;;;;;;16.25;100.00;101757.00;5029085;28;20199;-75
2023/08/26 03:15:56;;;;;;;5.50;2.70;;;;;;;15.66;100.00;101682.25;5029078;28;20804;-75
2023/08/26 03:18:22;;;;;;;8.27;3.10;;;;;;;16.14;100.00;101747.69;5026444;28;20442;-75
2023/08/26 03:20:47;;;;;;;4.90;2.80;;;;;;;15.25;100.00;101622.03;5029353;28;20449;-75
2023/08/26 03:23:13;;;;;;;7.83;3.80;;;;;;;14.99;100.00;101593.16;5028201;28;20707;-75
2023/08/26 03:25:39;;;;;;;6.13;2.90;;;;;;;15.56;100.00;101650.22;5030451;28;20203;-75
2023/08/26 03:28:05;;;;;;;4.47;2.90;;;;;;;15.21;100.00;101634.28;5029018;28;20215;-75
2023/08/26 03:30:31;;;;;;;11.20;2.87;;;;;;;14.85;100.00;101548.31;5031260;28;20446;-75
2023/08/26 03:32:56;;;;;;;6.30;2.70;;;;;;;15.30;100.00;101614.13;5030057;28;20880;-75
2023/08/26 03:35:22;;;;;;;7.47;2.70;;;;;;;15.84;100.00;101719.47;5031227;28;20199;-75
2023/08/26 03:37:47;;;;;;;5.53;2.33;;;;;;;14.66;100.00;101529.19;5028078;28;20184;-76
2023/08/26 03:40:13;;;;;;;6.90;2.87;;;;;;;15.85;100.00;101707.59;5029567;28;20681;-75
2023/08/26 03:42:39;;;;;;;4.67;1.83;;;;;;;15.78;100.00;101694.09;5030358;28;20180;-75
2023/08/26 03:45:05;;;;;;;4.30;2.40;;;;;;;15.76;100.00;101688.88;5028059;28;20513;-75
2023/08/26 03:47:32;;;;;;;6.07;2.53;;;;;;;14.78;100.00;101558.25;5027710;28;20180;-75
2023/08/26 03:49:57;;;;;;;5.10;2.37;;;;;;;15.68;100.00;101680.16;5026786;28;20451;-75
2023/08/26 03:52:23;;;;;;;3.90;2.07;;;;;;;14.81;100.00;101556.00;5028966;28;20520;-75
2023/08/26 03:54:48;;;;;;;4.50;2.20;;;;;;;15.66;100.00;101672.25;5031793;28;20175;-75
2023/08/26 03:57:14;;;;;;;6.37;2.20;;;;;;;15.62;100.00;101659.34;5025613;28;20687;-75
2023/08/26 03:59:39;;;;;;;4.70;2.10;;;;;;;15.54;100.00;101641.50;5026907;28;20648;-75
2023/08/26 04:02:04;;;;;;;4.97;2.27;;;;;;;15.44;100.00;101668.97;5029693;28;20597;-75
2023/08/26 04:04:31;;;;;;;5.20;2.10;;;;;;;14.95;100.00;101562.19;5031494;28;20180;-75
2023/08/26 04:06:57;;;;;;;4.43;2.40;;;;;;;15.43;100.00;101656.50;5028416;28;20737;-75
2023/08/26 04:09:23;;;;;;;3.60;2.20;;;;;;;15.25;100.00;101632.81;5028471;28;20595;-74
2023/08/26 04:11:49;;;;;;;3.33;2.00;;;;;;;15.51;100.00;101655.44;5030417;28;20668;-74
2023/08/26 04:14:15;;;;;;;4.37;2.17;;;;;;;15.45;100.00;101648.16;5032706;28;20456;-75
2023/08/26 04:16:40;;;;;;;7.00;2.47;;;;;;;15.05;100.00;101567.19;5030146;28;20438;-74
2023/08/26 04:19:06;;;;;;;5.10;1.80;;;;;;;15.20;100.00;101627.22;5033848;28;20212;-75
2023/08/26 04:21:32;;;;;;;5.07;2.20;;;;;;;14.31;100.00;101463.78;5032645;28;20178;-75
2023/08/26 04:23:57;;;;;;;4.53;1.90;;;;;;;14.60;100.00;101503.03;5034653;28;20263;-74
2023/08/26 04:26:23;;;;;;;3.87;1.73;;;;;;;15.38;100.00;101626.56;5031765;28;20476;-74
2023/08/26 04:28:48;;;;;;;5.70;1.70;;;;;;;15.42;100.00;101626.94;5033616;28;20227;-74
2023/08/26 04:31:14;;;;;;;5.60;2.30;;;;;;;14.91;100.00;101553.69;5032130;28;20195;-75
2023/08/26 04:33:40;;;;;;;4.07;1.50;;;;;;;15.42;100.00;101625.09;5030558;28;20204;-74
2023/08/26 04:36:06;;;;;;;3.90;1.53;;;;;;;15.38;100.00;101618.44;5029610;28;20191;-74
2023/08/26 04:38:31;;;;;;;4.60;1.97;;;;;;;15.29;100.00;101619.72;5032287;28;20458;-75
2023/08/26 04:40:57;;;;;;;4.03;1.83;;;;;;;15.32;100.00;101620.13;5031945;28;20211;-75
2023/08/26 04:43:25;;;;;;;3.70;1.70;;;;;;;15.35;100.00;101622.41;5030286;28;20215;-75
2023/08/26 04:45:52;;;;;;;3.90;1.40;;;;;;;15.33;100.00;101620.94;5031907;28;20965;-75
2023/08/26 04:48:18;;;;;;;3.57;1.43;;;;;;;15.32;100.00;101616.59;5034946;28;20468;-75
2023/08/26 04:50:44;;;;;;;4.43;1.53;;;;;;;15.08;100.00;101575.69;5033175;28;20422;-75
2023/08/26 04:53:10;;;;;;;4.00;1.40;;;;;;;14.30;100.00;101462.13;5029440;28;20470;-75
2023/08/26 04:55:36;;;;;;;5.00;1.60;;;;;;;15.12;100.00;101587.72;5029735;28;20833;-75
2023/08/26 04:58:02;;;;;;;3.60;1.40;;;;;;;15.00;100.00;101596.69;5031092;28;20583;-75
2023/08/26 05:00:27;;;;;;;2.83;1.40;;;;;;;15.13;100.00;101577.78;5038647;28;20528;-75
2023/08/26 05:02:53;;;;;;;3.03;1.70;;;;;;;15.05;100.00;101572.59;5031465;28;20939;-75
2023/08/26 05:05:19;;;;;;;3.63;1.33;;;;;;;15.25;100.00;101578.78;5031487;28;20184;-75
2023/08/26 05:07:44;;;;;;;3.37;1.20;;;;;;;15.15;100.00;101562.16;5029014;28;20184;-75
2023/08/26 05:10:10;;;;;;;2.60;1.20;;;;;;;15.13;100.00;101585.88;5030200;28;20270;-75
2023/08/26 05:12:36;;;;;;;4.50;1.20;;;;;;;15.20;100.00;101583.16;5027522;28;20211;-76
2023/08/26 05:15:04;;;;;;;4.30;1.60;;;;;;;14.16;100.00;101423.53;5031084;28;20202;-75
2023/08/26 05:17:29;;;;;;;3.00;1.50;;;;;;;14.98;100.00;101545.56;5029927;28;20181;-75
2023/08/26 05:19:55;;;;;;;3.60;1.17;;;;;;;15.18;100.00;101577.94;5028361;28;20623;-75
2023/08/26 05:22:21;;;;;;;3.73;1.17;;;;;;;14.84;100.00;101547.47;5028607;28;20198;-75
2023/08/26 05:24:47;;;;;;;2.40;1.23;;;;;;;15.19;100.00;101597.69;5028782;28;20187;-75
2023/08/26 05:27:15;;;;;;;2.60;1.30;;;;;;;14.80;100.00;101512.97;5029405;28;20441;-75
2023/08/26 05:29:40;;;;;;;5.40;1.77;;;;;;;14.57;100.00;101497.22;5027419;28;20470;-75
2023/08/26 05:32:06;;;;;;;3.30;1.10;;;;;;;14.58;100.00;101552.88;5028634;28;20473;-76
2023/08/26 05:34:31;;;;;;;3.30;1.33;;;;;;;14.59;100.00;101576.16;5029784;28;20208;-76
2023/08/26 05:36:58;;;;;;;4.53;1.20;;;;;;;14.08;100.00;101504.66;5029684;28;20190;-76
2023/08/26 05:39:23;;;;;;;3.33;1.13;;;;;;;14.32;100.00;101523.97;5034617;28;20285;-76
2023/08/26 05:41:49;;;;;;;2.87;1.33;;;;;;;14.93;100.00;101612.91;5031654;28;20439;-76
2023/08/26 05:44:14;;;;;;;2.63;1.33;;;;;;;14.53;100.00;101555.38;5029909;28;20660;-75
2023/08/26 05:46:40;;;;;;;4.87;1.23;;;;;;;14.78;100.00;101566.38;5028602;28;20637;-76
2023/08/26 05:49:05;;;;;;;2.60;1.30;;;;;;;15.25;100.00;101622.03;5034392;28;20203;-76
2023/08/26 05:51:31;;;;;;;4.20;1.27;;;;;;;15.31;100.00;101626.56;5035283;28;20208;-75
2023/08/26 05:53:56;;;;;;;2.50;1.00;;;;;;;15.18;100.00;101614.94;5032727;28;20204;-76
2023/08/26 05:56:22;;;;;;;2.93;1.17;;;;;;;15.29;100.00;101644.88;5031844;28;20187;-76
2023/08/26 05:58:47;;;;;;;3.90;1.33;;;;;;;15.11;100.00;101588.78;5033061;28;20211;-75
2023/08/26 06:01:13;;;;;;;5.27;1.43;;;;;;;15.21;100.00;101590.22;5030515;28;20195;-75
2023/08/26 06:03:38;;;;;;;3.10;1.50;;;;;;;15.03;100.00;101580.88;5029479;28;20184;-75
2023/08/26 06:06:05;;;;;;;4.77;1.77;;;;;;;15.49;100.00;101641.31;5027555;28;20184;-75
2023/08/26 06:08:30;;;;;;;5.53;1.83;;;;;;;15.56;100.00;101651.06;5029186;28;20291;-76
2023/08/26 06:10:56;;;;;;;5.47;2.50;;;;;;;15.01;100.00;101584.84;5029025;28;20442;-76
2023/08/26 06:13:22;;;;;;;3.80;1.70;;;;;;;15.32;100.00;101639.03;5029975;28;20210;-76
2023/08/26 06:15:54;;;;;;;4.20;2.10;;;;;;;15.50;100.00;101668.13;5037514;28;20184;-77
2023/08/26 06:18:19;;;;;;;3.80;1.70;;;;;;;15.70;100.00;101669.97;5034885;28;20275;-76
2023/08/26 06:20:45;;;;;;;4.30;2.07;;;;;;;15.68;100.00;101642.31;5033930;28;20431;-76
2023/08/26 06:23:10;;;;;;;4.30;2.07;;;;;;;15.86;100.00;101677.63;5034111;28;20259;-76
2023/08/26 06:25:35;;;;;;;5.77;2.10;;;;;;;15.98;100.00;101675.91;5031679;28;20637;-76
2023/08/26 06:28:01;;;;;;;3.20;1.83;;;;;;;15.34;100.00;101580.19;5030467;28;20568;-76
2023/08/26 06:30:26;;;;;;;3.67;2.23;;;;;;;15.81;100.00;101658.50;5030505;28;20207;-76
2023/08/26 06:32:52;;;;;;;4.33;2.10;;;;;;;15.85;100.00;101653.47;5028360;28;20597;-76
2023/08/26 06:35:17;;;;;;;3.80;2.10;;;;;;;15.74;100.00;101631.47;5030362;28;20422;-76
2023/08/26 06:37:43;;;;;;;3.80;2.13;;;;;;;16.01;100.00;101656.53;5026582;28;20180;-76
2023/08/26 06:40:09;;;;;;;3.83;1.90;;;;;;;15.91;100.00;101629.13;5030851;28;20220;-76
2023/08/26 06:42:34;;;;;;;3.90;1.97;;;;;;;15.74;100.00;101612.56;5029139;28;20188;-76
2023/08/26 06:45:00;;;;;;;3.43;1.60;;;;;;;16.11;100.00;101606.53;5030700;28;20938;-76
2023/08/26 06:47:25;;;;;;;3.07;1.50;;;;;;;16.44;100.00;101639.66;5025600;28;20184;-76
2023/08/26 06:49:50;;;;;;;4.87;2.13;;;;;;;16.32;100.00;101598.09;5031858;28;20208;-76
2023/08/26 06:52:16;;;;;;;4.10;1.40;;;;;;;16.26;100.00;101536.72;5025563;28;21143;-78
2023/08/26 06:54:41;;;;;;;5.13;2.40;;;;;;;16.62;100.00;101600.16;5030121;28;20190;-77
2023/08/26 06:57:07;;;;;;;3.30;1.30;;;;;;;15.98;100.00;101424.28;5032063;28;20566;-77
2023/08/26 06:59:32;;;;;;;5.50;2.27;;;;;;;16.79;100.00;101563.38;5031115;28;20200;-78
2023/08/26 07:01:57;;;;;;;3.40;1.27;;;;;;;16.18;100.00;101453.91;5027637;28;20188;-77
2023/08/26 07:04:24;;;;;;;5.23;1.80;;;;;;;15.86;100.00;101390.88;5030276;28;20192;-78
2023/08/26 07:06:50;;;;;;;4.97;1.80;;;;;;;16.50;100.00;101519.63;5028133;28;20192;-77
2023/08/26 07:09:16;;;;;;;7.40;2.00;;;;;;;16.35;100.00;101504.78;5020305;28;21106;-77
2023/08/26 07:14:16;;;;;;;4.10;1.70;;;;;;;16.52;100.00;101497.75;5733095;23;21248;-70
2023/08/26 07:16:42;;;;;;;3.50;1.40;;;;;;;16.75;100.00;101493.56;4999830;23;20508;-72
2023/08/26 07:19:08;;;;;;;3.40;1.17;;;;;;;16.29;100.00;101417.16;4991463;28;20194;-72
2023/08/26 07:21:34;;;;;;;3.63;1.83;;;;;;;16.85;100.00;101481.19;4988932;28;20471;-72
2023/08/26 07:23:59;;;;;;;4.10;1.60;;;;;;;16.44;100.00;101395.16;4987607;28;20437;-72
2023/08/26 07:26:25;;;;;;;4.27;2.30;;;;;;;16.64;100.00;101503.28;4990218;28;20280;-73
2023/08/26 07:28:50;;;;;;;3.23;1.70;;;;;;;16.61;100.00;101503.72;5001128;28;20237;-72
2023/08/26 07:31:15;;;;;;;3.87;2.10;;;;;;;16.77;100.00;101503.16;4992099;28;20208;-72
2023/08/26 07:33:41;;;;;;;4.87;1.83;;;;;;;15.92;100.00;101362.94;4991434;28;20286;-71
2023/08/26 07:36:09;;;;;;;6.63;2.07;;;;;;;16.35;100.00;101473.13;4991379;28;20206;-72
2023/08/26 07:38:37;;;;;;;4.03;1.90;;;;;;;16.02;100.00;101449.84;4995802;28;20634;-72
2023/08/26 07:41:02;;;;;;;5.87;2.20;;;;;;;16.15;100.00;101459.75;4993315;28;20440;-73
2023/08/26 07:43:28;;;;;;;3.90;1.90;;;;;;;15.53;100.00;101361.34;4991454;28;20841;-72
2023/08/26 07:45:53;;;;;;;4.27;2.30;;;;;;;15.95;100.00;101426.63;4991282;28;20209;-73
2023/08/26 07:48:19;;;;;;;5.53;2.27;;;;;;;16.42;100.00;101476.59;4993316;28;20290;-72
2023/08/26 07:50:44;;;;;;;3.87;1.70;;;;;;;16.57;100.00;101488.94;4991475;28;20216;-72
2023/08/26 07:53:10;;;;;;;4.33;2.07;;;;;;;16.20;100.00;101410.34;4992241;28;20743;-73
2023/08/26 07:55:35;;;;;;;4.47;1.73;;;;;;;16.55;100.00;101434.19;4993504;28;20216;-72
2023/08/26 07:58:01;;;;;;;4.60;2.40;;;;;;;16.49;100.00;101458.41;4996212;28;20252;-72
2023/08/26 08:00:26;;;;;;;5.93;2.73;;;;;;;16.65;100.00;101505.75;4992218;28;20189;-72
2023/08/26 08:02:52;;;;;;;7.67;3.30;;;;;;;16.32;100.00;101478.97;4993349;28;20645;-73
2023/08/26 08:05:17;;;;;;;6.70;2.17;;;;;;;15.74;100.00;101382.66;4992172;28;20274;-72
2023/08/26 08:07:43;;;;;;;4.57;2.30;;;;;;;16.48;100.00;101469.47;4990909;28;20221;-71
2023/08/26 08:10:08;;;;;;;4.90;2.80;;;;;;;15.89;100.00;101374.22;4992733;28;20194;-71
2023/08/26 08:12:35;;;;;;;7.00;3.27;;;;;;;16.15;100.00;101399.38;4993485;28;20272;-72
2023/08/26 08:15:01;;;;;;;5.73;2.60;;;;;;;16.79;100.00;101462.31;4995242;28;20189;-71
2023/08/26 08:17:26;;;;;;;5.90;2.60;;;;;;;15.87;100.00;101311.38;4991955;28;21082;-72
2023/08/26 08:19:52;;;;;;;4.30;2.40;;;;;;;17.04;100.00;101411.59;4991765;28;20444;-72
2023/08/26 08:22:17;;;;;;;4.37;2.43;;;;;;;16.35;100.00;101337.75;4991432;28;20664;-72
2023/08/26 08:24:43;;;;;;;5.20;2.80;;;;;;;16.33;100.00;101320.91;4991162;28;20646;-72
2023/08/26 08:27:09;;;;;;;5.33;3.00;;;;;;;16.10;100.00;101320.75;4996027;28;20217;-72
2023/08/26 08:29:34;;;;;;;6.60;2.53;;;;;;;16.44;100.00;101320.16;5002111;28;20444;-72
2023/08/26 08:32:01;;;;;;;5.60;3.40;;;;;;;17.04;100.00;101389.91;4990507;28;20185;-73
2023/08/26 08:34:26;;;;;;;7.50;3.27;;;;;;;16.93;100.00;101409.63;4987945;28;20193;-71
2023/08/26 08:36:52;;;;;;;6.17;3.27;;;;;;;16.11;100.00;101308.84;4987943;28;20465;-73
2023/08/26 08:39:17;;;;;;;5.07;3.23;;;;;;;15.84;100.00;101268.56;4989837;28;20240;-72
2023/08/26 08:41:47;;;;;;;4.77;3.40;;;;;;;16.19;100.00;101320.22;4988908;28;20670;-72
2023/08/26 08:44:14;;;;;;;5.87;3.43;;;;;;;16.22;100.00;101329.78;5003375;28;20233;-72
2023/08/26 08:46:40;;;;;;;6.83;3.70;;;;;;;16.36;100.00;101289.84;4993340;28;20451;-72
2023/08/26 08:49:06;;;;;;;5.27;4.00;;;;;;;17.00;100.00;101414.97;5002867;28;20426;-72
2023/08/26 08:51:34;;;;;;;5.70;4.17;;;;;;;16.77;100.00;101411.06;4993441;28;20904;-72
2023/08/26 08:54:02;;;;;;;12.93;6.47;;;;;;;16.82;100.00;101430.19;5005218;28;20461;-72
2023/08/26 08:56:30;;;;;;;9.10;5.47;;;;;;;16.50;100.00;101348.22;4993390;28;20444;-73
2023/08/26 08:58:57;;;;;;;9.00;6.57;;;;;;;16.85;100.00;101380.13;4994296;28;20475;-73
2023/08/26 09:01:25;;;;;;;9.30;7.10;;;;;;;17.27;100.00;101443.41;5003769;28;20417;-72
2023/08/26 09:03:50;;;;;;;10.70;8.27;;;;;;;16.91;100.00;101376.50;5005482;28;20417;-72
2023/08/26 09:06:19;;;;;;;10.57;7.93;;;;;;;17.37;100.00;101413.03;4992749;28;20444;-73
2023/08/26 09:08:45;;;;;;;11.23;9.20;;;;;;;17.70;100.00;101419.84;4991142;28;20182;-73
2023/08/26 09:11:12;;;;;;;11.40;10.20;;;;;;;17.24;100.00;101388.78;4992481;28;20612;-73
2023/08/26 09:13:38;;;;;;;15.53;10.80;;;;;;;16.42;100.00;101267.28;4990779;28;20544;-73
2023/08/26 09:16:04;;;;;;;14.90;11.90;;;;;;;17.17;100.00;101329.25;4995642;28;20892;-72
2023/08/26 09:18:30;;;;;;;12.50;10.33;;;;;;;17.47;100.00;101356.31;4995144;28;20249;-73
2023/08/26 09:20:55;;;;;;;14.13;11.40;;;;;;;17.22;100.00;101332.09;4991021;28;20859;-74
2023/08/26 09:23:21;;;;;;;16.80;13.27;;;;;;;17.53;100.00;101381.69;4993066;28;20189;-73
2023/08/26 09:25:53;;;;;;;16.13;10.90;;;;;;;17.67;100.00;101388.56;4992767;28;20205;-73
2023/08/26 09:28:20;;;;;;;14.33;11.37;;;;;;;17.60;100.00;101383.25;4991110;28;20194;-73
2023/08/26 09:31:07;;;;;;;12.10;10.23;;;;;;;17.39;100.00;101375.66;5004683;28;20551;-73
2023/08/26 09:33:33;;;;;;;13.90;11.57;;;;;;;17.58;100.00;101369.09;5005174;28;20524;-72
2023/08/26 09:35:59;;;;;;;11.53;8.10;;;;;;;17.29;100.00;101265.03;4991073;28;20463;-72
2023/08/26 09:38:25;;;;;;;12.20;10.63;;;;;;;17.14;100.00;101240.28;4993237;28;20898;-73
2023/08/26 09:40:59;;;;;;;10.80;9.57;;;;;;;17.21;100.00;101232.84;4990863;28;20646;-72
2023/08/26 09:43:25;;;;;;;11.47;8.87;;;;;;;17.94;100.00;101307.59;4992818;28;20425;-73
2023/08/26 09:45:56;;;;;;;13.53;10.23;;;;;;;17.61;100.00;101245.75;4991824;28;20464;-72
2023/08/26 09:48:23;;;;;;;15.83;12.10;;;;;;;17.67;100.00;101276.53;4993451;28;20529;-72
2023/08/26 09:50:48;;;;;;;14.67;12.50;;;;;;;17.74;100.00;101298.97;4991074;28;20432;-73
2023/08/26 09:53:27;;;;;;;12.17;10.87;;;;;;;16.86;100.00;101179.41;4989978;28;20464;-74
2023/08/26 09:55:53;;;;;;;13.13;11.03;;;;;;;17.75;100.00;101314.97;4989833;28;20202;-73
2023/08/26 09:58:18;;;;;;;15.60;13.47;;;;;;;17.32;100.00;101291.69;4990023;28;20433;-73
2023/08/26 10:00:47;;;;;;;12.00;10.10;;;;;;;17.78;100.00;101311.84;4990494;28;20186;-73
2023/08/26 10:03:15;;;;;;;13.93;10.70;;;;;;;17.83;100.00;101260.41;5004961;28;20178;-73
2023/08/26 10:05:45;;;;;;;13.40;12.10;;;;;;;18.07;100.00;101290.22;4989755;28;20459;-73
2023/08/26 10:08:10;;;;;;;16.47;11.60;;;;;;;17.89;100.00;101280.34;5004198;28;20439;-73
2023/08/26 10:10:54;;;;;;;18.10;12.97;;;;;;;17.47;100.00;101206.34;4990578;28;20440;-73
2023/08/26 10:13:23;;;;;;;17.70;13.07;;;;;;;17.32;100.00;101204.09;5000371;28;20217;-80
2023/08/26 10:15:53;;;;;;;17.33;13.00;;;;;;;17.43;100.00;101197.88;4991683;28;20475;-79
2023/08/26 10:18:37;;;;;;;16.60;12.20;;;;;;;17.95;100.00;101222.41;5001730;28;20444;-83
2023/08/26 10:21:04;;;;;;;14.50;11.47;;;;;;;18.17;100.00;101295.91;4992480;28;20440;-79
2023/08/26 10:23:29;;;;;;;11.83;9.87;;;;;;;18.29;100.00;101274.97;4995675;28;20429;-85
2023/08/26 10:25:56;;;;;;;9.23;8.23;;;;;;;18.05;100.00;101228.06;4995012;28;20464;-85
2023/08/26 10:28:23;;;;;;;12.83;9.90;;;;;;;18.44;100.00;101251.91;4998193;28;20185;-84
2023/08/26 10:30:50;;;;;;;12.00;9.60;;;;;;;18.26;100.00;101223.06;5006042;28;20460;-82
2023/08/26 10:33:16;;;;;;;11.70;8.93;;;;;;;18.01;100.00;101136.47;5004157;28;21003;-84
2023/08/26 10:35:41;;;;;;;11.10;8.77;;;;;;;18.64;100.00;101224.34;4999227;28;20452;-85
2023/08/26 10:38:14;;;;;;;10.17;7.90;;;;;;;18.49;100.00;101208.56;5000039;28;20434;-84
2023/08/26 10:40:40;;;;;;;8.83;6.73;;;;;;;18.04;100.00;101120.53;5005508;28;20192;-81
2023/08/26 10:43:12;;;;;;;7.67;6.47;;;;;;;18.63;100.00;101204.50;4998522;28;20423;-86
2023/08/26 10:45:48;;;;;;;9.70;6.60;;;;;;;18.66;100.00;101192.28;4999671;28;20460;-82
2023/08/26 10:48:14;;;;;;;10.33;6.93;;;;;;;18.61;100.00;101208.50;5004486;28;20450;-87
2023/08/26 10:50:41;;;;;;;11.20;6.97;;;;;;;18.08;100.00;101169.75;4993463;28;20455;-78
2023/08/26 10:53:23;;;;;;;10.57;5.90;;;;;;;18.31;100.00;101176.97;4991006;28;20956;-83
2023/08/26 10:55:53;;;;;;;9.23;5.53;;;;;;;18.74;100.00;101186.50;5003492;28;20463;-84
2023/08/26 10:58:22;;;;;;;8.50;5.83;;;;;;;18.66;100.00;101165.13;4993395;28;20440;-84
2023/08/26 11:00:49;;;;;;;12.10;7.27;;;;;;;18.21;100.00;101062.75;5001274;28;20522;-88
2023/08/26 11:03:22;;;;;;;7.10;5.10;;;;;;;18.85;100.00;101155.72;5006225;28;20421;-85
2023/08/26 11:06:02;;;;;;;6.87;5.37;;;;;;;18.77;100.00;101141.72;5001311;28;20448;-89
2023/08/26 11:08:27;;;;;;;7.87;5.70;;;;;;;18.83;100.00;101097.22;5005270;28;20461;-86
2023/08/26 11:10:53;;;;;;;8.17;4.80;;;;;;;18.91;100.00;101086.78;4999241;28;20460;-87
2023/08/26 11:13:22;;;;;;;10.70;6.80;;;;;;;19.18;100.00;101107.84;5002717;28;20213;-89